sensor_id;sensor_type;location;lat;lon;timestamp;pressure;altitude;pressure_sealevel;temperature;humidity
54306;BME280;66145;45.188;5.712;2023-01-25T00:01:57;100609.63;;;12.25;45.66
54306;BME280;66145;45.188;5.712;2023-01-25T00:04:23;100549.38;;;11.87;45.65
54306;BME280;66145;45.188;5.712;2023-01-25T00:06:49;100580.97;;;12.17;45.26
54306;BME280;66145;45.188;5.712;2023-01-25T00:09:15;100577.56;;;12.10;46.00
54306;BME280;66145;45.188;5.712;2023-01-25T00:11:41;100466.03;;;11.47;45.66
54306;BME280;66145;45.188;5.712;2023-01-25T00:14:12;100542.31;;;11.98;45.68
54306;BME280;66145;45.188;5.712;2023-01-25T00:16:38;100554.66;;;11.94;45.23
54306;BME280;66145;45.188;5.712;2023-01-25T00:19:04;100481.69;;;11.57;45.87
54306;BME280;66145;45.188;5.712;2023-01-25T00:21:30;100535.09;;;11.92;45.20
54306;BME280;66145;45.188;5.712;2023-01-25T00:23:56;100534.03;;;11.93;45.58
54306;BME280;66145;45.188;5.712;2023-01-25T00:26:21;100560.22;;;12.11;45.93
54306;BME280;66145;45.188;5.712;2023-01-25T00:28:56;100582.75;;;12.24;45.42
54306;BME280;66145;45.188;5.712;2023-01-25T00:33:55;100580.50;;;12.21;45.49
54306;BME280;66145;45.188;5.712;2023-01-25T00:39:02;100574.59;;;12.24;45.48
54306;BME280;66145;45.188;5.712;2023-01-25T00:41:27;100562.34;;;12.09;45.52
54306;BME280;66145;45.188;5.712;2023-01-25T00:43:53;100543.97;;;11.99;45.97
54306;BME280;66145;45.188;5.712;2023-01-25T00:46:19;100566.09;;;12.20;45.56
54306;BME280;66145;45.188;5.712;2023-01-25T00:48:44;100536.19;;;12.03;45.50
54306;BME280;66145;45.188;5.712;2023-01-25T00:51:10;100550.78;;;12.14;45.91
54306;BME280;66145;45.188;5.712;2023-01-25T00:53:36;100536.97;;;12.04;45.60
54306;BME280;66145;45.188;5.712;2023-01-25T00:56:01;100511.16;;;11.89;45.70
54306;BME280;66145;45.188;5.712;2023-01-25T00:58:27;100535.38;;;12.02;45.71
54306;BME280;66145;45.188;5.712;2023-01-25T01:00:53;100548.78;;;12.09;45.57
54306;BME280;66145;45.188;5.712;2023-01-25T01:03:19;100519.16;;;11.96;45.69
54306;BME280;66145;45.188;5.712;2023-01-25T01:05:45;100567.53;;;12.23;45.86
54306;BME280;66145;45.188;5.712;2023-01-25T01:08:12;100571.06;;;12.23;45.73
54306;BME280;66145;45.188;5.712;2023-01-25T01:10:37;100564.47;;;12.19;45.35
54306;BME280;66145;45.188;5.712;2023-01-25T01:13:03;100581.31;;;12.21;46.00
54306;BME280;66145;45.188;5.712;2023-01-25T01:15:29;100554.31;;;12.14;45.77
54306;BME280;66145;45.188;5.712;2023-01-25T01:17:54;100566.22;;;12.13;45.89
54306;BME280;66145;45.188;5.712;2023-01-25T01:20:20;100540.78;;;12.02;46.20
54306;BME280;66145;45.188;5.712;2023-01-25T01:22:45;100534.19;;;11.98;45.42
54306;BME280;66145;45.188;5.712;2023-01-25T01:25:10;100458.50;;;11.49;45.53
54306;BME280;66145;45.188;5.712;2023-01-25T01:27:37;100545.63;;;12.00;45.67
54306;BME280;66145;45.188;5.712;2023-01-25T01:30:06;100560.22;;;12.11;45.71
54306;BME280;66145;45.188;5.712;2023-01-25T01:32:32;100562.81;;;12.18;46.24
54306;BME280;66145;45.188;5.712;2023-01-25T01:34:57;100545.72;;;12.06;46.11
54306;BME280;66145;45.188;5.712;2023-01-25T01:37:22;100557.97;;;12.20;45.76
54306;BME280;66145;45.188;5.712;2023-01-25T01:39:48;100562.56;;;12.20;45.89
54306;BME280;66145;45.188;5.712;2023-01-25T01:42:13;100515.75;;;11.89;46.23
54306;BME280;66145;45.188;5.712;2023-01-25T01:44:43;100514.72;;;11.90;45.60
54306;BME280;66145;45.188;5.712;2023-01-25T01:47:14;100475.59;;;11.62;46.01
54306;BME280;66145;45.188;5.712;2023-01-25T01:49:46;100542.88;;;12.12;45.66
54306;BME280;66145;45.188;5.712;2023-01-25T01:52:16;100547.50;;;12.12;45.40
54306;BME280;66145;45.188;5.712;2023-01-25T01:54:52;100547.34;;;12.19;45.60
54306;BME280;66145;45.188;5.712;2023-01-25T01:57:35;100442.59;;;11.53;45.78
54306;BME280;66145;45.188;5.712;2023-01-25T02:00:15;100544.91;;;12.17;46.06
54306;BME280;66145;45.188;5.712;2023-01-25T02:02:42;100541.81;;;12.13;46.03
54306;BME280;66145;45.188;5.712;2023-01-25T02:05:11;100521.44;;;11.99;45.69
54306;BME280;66145;45.188;5.712;2023-01-25T02:07:42;100534.66;;;12.07;45.92
54306;BME280;66145;45.188;5.712;2023-01-25T02:10:10;100534.19;;;12.10;45.79
54306;BME280;66145;45.188;5.712;2023-01-25T02:12:37;100529.69;;;12.04;46.18
54306;BME280;66145;45.188;5.712;2023-01-25T02:15:03;100562.81;;;12.18;46.09
54306;BME280;66145;45.188;5.712;2023-01-25T02:17:34;100538.75;;;12.10;45.61
54306;BME280;66145;45.188;5.712;2023-01-25T02:25:15;100489.72;;;11.87;46.09
54306;BME280;66145;45.188;5.712;2023-01-25T02:27:47;100452.28;;;11.61;45.95
54306;BME280;66145;45.188;5.712;2023-01-25T02:30:15;100525.66;;;12.07;45.79
54306;BME280;66145;45.188;5.712;2023-01-25T02:32:40;100502.22;;;12.00;45.79
54306;BME280;66145;45.188;5.712;2023-01-25T02:35:06;100524.13;;;12.11;45.87
54306;BME280;66145;45.188;5.712;2023-01-25T02:37:32;100525.06;;;12.16;46.04
54306;BME280;66145;45.188;5.712;2023-01-25T02:39:57;100497.72;;;11.94;45.42
54306;BME280;66145;45.188;5.712;2023-01-25T02:42:22;100484.28;;;11.87;46.10
54306;BME280;66145;45.188;5.712;2023-01-25T02:44:49;100498.69;;;12.00;46.22
54306;BME280;66145;45.188;5.712;2023-01-25T02:47:15;100490.63;;;11.93;45.71
54306;BME280;66145;45.188;5.712;2023-01-25T02:49:40;100494.41;;;11.92;45.94
54306;BME280;66145;45.188;5.712;2023-01-25T02:52:05;100521.41;;;12.11;45.85
54306;BME280;66145;45.188;5.712;2023-01-25T02:54:31;100488.19;;;11.92;45.70
54306;BME280;66145;45.188;5.712;2023-01-25T02:56:56;100518.38;;;12.07;45.92
54306;BME280;66145;45.188;5.712;2023-01-25T02:59:22;100487.81;;;11.88;46.34
54306;BME280;66145;45.188;5.712;2023-01-25T03:01:48;100510.97;;;12.02;46.20
54306;BME280;66145;45.188;5.712;2023-01-25T03:04:13;100511.88;;;12.08;45.92
54306;BME280;66145;45.188;5.712;2023-01-25T03:06:39;100485.81;;;11.95;46.04
54306;BME280;66145;45.188;5.712;2023-01-25T03:09:07;100520.69;;;12.15;46.12
54306;BME280;66145;45.188;5.712;2023-01-25T03:11:33;100502.81;;;12.02;45.95
54306;BME280;66145;45.188;5.712;2023-01-25T03:13:59;100525.31;;;12.15;45.95
54306;BME280;66145;45.188;5.712;2023-01-25T03:16:24;100494.53;;;11.97;45.76
54306;BME280;66145;45.188;5.712;2023-01-25T03:18:52;100512.22;;;12.12;46.10
54306;BME280;66145;45.188;5.712;2023-01-25T03:21:20;100473.44;;;11.87;46.01
54306;BME280;66145;45.188;5.712;2023-01-25T03:23:47;100503.16;;;12.06;46.04
54306;BME280;66145;45.188;5.712;2023-01-25T03:26:18;100503.84;;;12.13;46.21
54306;BME280;66145;45.188;5.712;2023-01-25T03:28:44;100504.91;;;12.12;45.98
54306;BME280;66145;45.188;5.712;2023-01-25T03:31:11;100501.13;;;12.13;45.89
54306;BME280;66145;45.188;5.712;2023-01-25T03:33:37;100496.53;;;12.14;45.94
54306;BME280;66145;45.188;5.712;2023-01-25T03:36:03;100480.13;;;11.97;45.99
54306;BME280;66145;45.188;5.712;2023-01-25T03:38:30;100492.19;;;12.13;46.08
54306;BME280;66145;45.188;5.712;2023-01-25T03:40:55;100481.34;;;12.01;46.22
54306;BME280;66145;45.188;5.712;2023-01-25T03:43:22;100466.72;;;11.90;46.12
54306;BME280;66145;45.188;5.712;2023-01-25T03:45:52;100464.25;;;11.89;46.16
54306;BME280;66145;45.188;5.712;2023-01-25T03:48:18;100494.88;;;12.13;45.95
54306;BME280;66145;45.188;5.712;2023-01-25T03:50:48;100468.72;;;11.95;45.96
54306;BME280;66145;45.188;5.712;2023-01-25T03:53:13;100468.59;;;11.90;45.72
54306;BME280;66145;45.188;5.712;2023-01-25T03:55:51;100480.41;;;12.07;45.95
54306;BME280;66145;45.188;5.712;2023-01-25T03:58:17;100465.44;;;11.93;45.96
54306;BME280;66145;45.188;5.712;2023-01-25T04:00:42;100481.69;;;12.05;46.01
54306;BME280;66145;45.188;5.712;2023-01-25T04:03:07;100487.69;;;12.07;46.19
54306;BME280;66145;45.188;5.712;2023-01-25T04:05:33;100461.88;;;11.92;45.58
54306;BME280;66145;45.188;5.712;2023-01-25T04:07:58;100442.56;;;11.89;46.05
54306;BME280;66145;45.188;5.712;2023-01-25T04:10:23;100474.97;;;12.07;45.87
54306;BME280;66145;45.188;5.712;2023-01-25T04:12:49;100484.25;;;12.11;46.21
54306;BME280;66145;45.188;5.712;2023-01-25T04:15:14;100465.28;;;12.11;45.98
54306;BME280;66145;45.188;5.712;2023-01-25T04:17:39;100427.81;;;11.84;45.85
54306;BME280;66145;45.188;5.712;2023-01-25T04:20:05;100440.19;;;11.92;45.83
54306;BME280;66145;45.188;5.712;2023-01-25T04:22:31;100456.31;;;12.11;45.87
54306;BME280;66145;45.188;5.712;2023-01-25T04:24:56;100376.00;;;11.57;46.12
54306;BME280;66145;45.188;5.712;2023-01-25T04:27:21;100449.38;;;12.03;45.81
54306;BME280;66145;45.188;5.712;2023-01-25T04:29:47;100423.00;;;11.86;46.23
54306;BME280;66145;45.188;5.712;2023-01-25T04:32:12;100429.59;;;11.91;46.06
54306;BME280;66145;45.188;5.712;2023-01-25T04:34:37;100422.50;;;11.90;46.38
54306;BME280;66145;45.188;5.712;2023-01-25T04:37:03;100405.69;;;11.76;46.04
54306;BME280;66145;45.188;5.712;2023-01-25T04:39:28;100452.22;;;12.08;46.21
54306;BME280;66145;45.188;5.712;2023-01-25T04:41:53;100412.16;;;11.86;45.89
54306;BME280;66145;45.188;5.712;2023-01-25T04:44:19;100409.31;;;11.81;46.18
54306;BME280;66145;45.188;5.712;2023-01-25T04:46:44;100409.44;;;11.86;45.92
54306;BME280;66145;45.188;5.712;2023-01-25T04:49:09;100356.38;;;11.50;46.48
54306;BME280;66145;45.188;5.712;2023-01-25T04:51:35;100438.78;;;12.01;46.30
54306;BME280;66145;45.188;5.712;2023-01-25T04:54:00;100432.31;;;12.02;45.95
54306;BME280;66145;45.188;5.712;2023-01-25T04:56:25;100448.44;;;12.09;45.72
54306;BME280;66145;45.188;5.712;2023-01-25T04:58:51;100408.84;;;11.84;46.40
54306;BME280;66145;45.188;5.712;2023-01-25T05:01:16;100405.91;;;11.86;46.07
54306;BME280;66145;45.188;5.712;2023-01-25T05:03:41;100441.25;;;12.03;45.96
54306;BME280;66145;45.188;5.712;2023-01-25T05:06:07;100404.72;;;11.82;45.75
54306;BME280;66145;45.188;5.712;2023-01-25T05:08:32;100413.47;;;11.84;46.09
54306;BME280;66145;45.188;5.712;2023-01-25T05:10:57;100442.06;;;12.04;46.09
54306;BME280;66145;45.188;5.712;2023-01-25T05:13:23;100429.91;;;11.94;46.20
54306;BME280;66145;45.188;5.712;2023-01-25T05:15:48;100454.09;;;12.08;46.07
54306;BME280;66145;45.188;5.712;2023-01-25T05:18:13;100418.16;;;11.89;46.20
54306;BME280;66145;45.188;5.712;2023-01-25T05:20:39;100449.50;;;12.08;46.05
54306;BME280;66145;45.188;5.712;2023-01-25T05:23:04;100446.34;;;11.99;46.13
54306;BME280;66145;45.188;5.712;2023-01-25T05:25:29;100418.16;;;11.89;45.92
54306;BME280;66145;45.188;5.712;2023-01-25T05:28:13;100420.03;;;11.88;46.45
54306;BME280;66145;45.188;5.712;2023-01-25T05:30:39;100417.69;;;11.92;46.00
54306;BME280;66145;45.188;5.712;2023-01-25T05:33:04;100393.06;;;11.81;46.33
54306;BME280;66145;45.188;5.712;2023-01-25T05:35:30;100442.44;;;12.07;46.33
54306;BME280;66145;45.188;5.712;2023-01-25T05:37:57;100433.94;;;12.04;46.10
54306;BME280;66145;45.188;5.712;2023-01-25T05:40:23;100411.66;;;11.90;46.21
54306;BME280;66145;45.188;5.712;2023-01-25T05:42:55;100403.41;;;11.84;45.84
54306;BME280;66145;45.188;5.712;2023-01-25T05:45:21;100439.13;;;12.05;45.85
54306;BME280;66145;45.188;5.712;2023-01-25T05:47:51;100400.13;;;11.82;45.93
54306;BME280;66145;45.188;5.712;2023-01-25T05:50:17;100389.41;;;11.76;46.39
54306;BME280;66145;45.188;5.712;2023-01-25T05:52:44;100438.41;;;11.98;46.47
54306;BME280;66145;45.188;5.712;2023-01-25T05:55:10;100371.56;;;11.63;45.92
54306;BME280;66145;45.188;5.712;2023-01-25T05:57:35;100376.13;;;11.62;45.85
54306;BME280;66145;45.188;5.712;2023-01-25T06:00:02;100442.44;;;12.07;46.23
54306;BME280;66145;45.188;5.712;2023-01-25T06:02:28;100404.84;;;11.87;45.94
54306;BME280;66145;45.188;5.712;2023-01-25T06:04:53;100337.88;;;11.47;46.14
54306;BME280;66145;45.188;5.712;2023-01-25T06:07:18;100321.03;;;11.33;46.18
54306;BME280;66145;45.188;5.712;2023-01-25T06:09:44;100440.19;;;12.04;46.43
54306;BME280;66145;45.188;5.712;2023-01-25T06:12:09;100427.81;;;11.96;46.29
54306;BME280;66145;45.188;5.712;2023-01-25T06:14:34;100414.50;;;11.95;46.26
54306;BME280;66145;45.188;5.712;2023-01-25T06:17:00;100328.59;;;11.31;46.42
54306;BME280;66145;45.188;5.712;2023-01-25T06:19:25;100429.81;;;12.01;46.04
54306;BME280;66145;45.188;5.712;2023-01-25T06:21:51;100388.81;;;11.74;46.58
54306;BME280;66145;45.188;5.712;2023-01-25T06:24:16;100425.72;;;11.98;46.20
54306;BME280;66145;45.188;5.712;2023-01-25T06:26:41;100430.66;;;12.01;46.58
54306;BME280;66145;45.188;5.712;2023-01-25T06:29:07;100414.59;;;11.88;46.01
54306;BME280;66145;45.188;5.712;2023-01-25T06:31:32;100433.13;;;12.03;46.31
54306;BME280;66145;45.188;5.712;2023-01-25T06:33:58;100380.09;;;11.71;46.46
54306;BME280;66145;45.188;5.712;2023-01-25T06:36:28;100370.47;;;11.64;46.28
54306;BME280;66145;45.188;5.712;2023-01-25T06:38:54;100395.28;;;11.84;46.16
54306;BME280;66145;45.188;5.712;2023-01-25T06:41:19;100363.91;;;11.60;45.80
54306;BME280;66145;45.188;5.712;2023-01-25T06:43:46;100412.16;;;11.86;46.07
54306;BME280;66145;45.188;5.712;2023-01-25T06:46:12;100394.13;;;11.80;46.03
54306;BME280;66145;45.188;5.712;2023-01-25T06:48:38;100397.66;;;11.81;46.49
54306;BME280;66145;45.188;5.712;2023-01-25T06:51:06;100385.63;;;11.77;46.15
54306;BME280;66145;45.188;5.712;2023-01-25T06:53:34;100417.22;;;11.95;46.28
54306;BME280;66145;45.188;5.712;2023-01-25T06:56:05;100386.22;;;11.79;46.36
54306;BME280;66145;45.188;5.712;2023-01-25T06:58:31;100411.78;;;11.95;46.36
54306;BME280;66145;45.188;5.712;2023-01-25T07:01:04;100385.41;;;11.78;46.07
54306;BME280;66145;45.188;5.712;2023-01-25T07:03:31;100381.41;;;11.69;46.06
54306;BME280;66145;45.188;5.712;2023-01-25T07:06:01;100424.16;;;12.02;46.08
54306;BME280;66145;45.188;5.712;2023-01-25T07:08:27;100400.56;;;11.91;46.28
54306;BME280;66145;45.188;5.712;2023-01-25T07:10:54;100407.91;;;11.91;46.10
54306;BME280;66145;45.188;5.712;2023-01-25T07:13:19;100340.69;;;11.52;46.21
54306;BME280;66145;45.188;5.712;2023-01-25T07:15:51;100389.53;;;11.81;46.21
54306;BME280;66145;45.188;5.712;2023-01-25T07:18:16;100399.06;;;11.83;46.11
54306;BME280;66145;45.188;5.712;2023-01-25T07:20:42;100399.91;;;11.84;46.38
54306;BME280;66145;45.188;5.712;2023-01-25T07:23:07;100345.53;;;11.50;46.49
54306;BME280;66145;45.188;5.712;2023-01-25T07:25:32;100387.53;;;11.76;46.25
54306;BME280;66145;45.188;5.712;2023-01-25T07:27:58;100424.66;;;11.99;46.33
54306;BME280;66145;45.188;5.712;2023-01-25T07:30:23;100411.78;;;11.95;46.16
54306;BME280;66145;45.188;5.712;2023-01-25T07:32:48;100422.75;;;12.00;46.38
54306;BME280;66145;45.188;5.712;2023-01-25T07:35:14;100416.13;;;11.96;45.99
54306;BME280;66145;45.188;5.712;2023-01-25T07:37:39;100421.94;;;11.99;46.47
54306;BME280;66145;45.188;5.712;2023-01-25T07:40:05;100395.41;;;11.90;46.43
54306;BME280;66145;45.188;5.712;2023-01-25T07:42:30;100374.47;;;11.73;46.15
54306;BME280;66145;45.188;5.712;2023-01-25T07:44:56;100330.69;;;11.40;46.02
54306;BME280;66145;45.188;5.712;2023-01-25T07:47:21;100363.63;;;11.61;46.27
54306;BME280;66145;45.188;5.712;2023-01-25T07:49:46;100396.22;;;11.90;46.00
54306;BME280;66145;45.188;5.712;2023-01-25T07:52:12;100389.75;;;11.79;46.22
54306;BME280;66145;45.188;5.712;2023-01-25T07:54:37;100308.94;;;11.35;46.32
54306;BME280;66145;45.188;5.712;2023-01-25T07:57:02;100414.25;;;11.96;46.11
54306;BME280;66145;45.188;5.712;2023-01-25T07:59:28;100369.84;;;11.74;46.03
54306;BME280;66145;45.188;5.712;2023-01-25T08:01:55;100316.22;;;11.35;46.32
54306;BME280;66145;45.188;5.712;2023-01-25T08:04:20;100381.88;;;11.78;46.55
54306;BME280;66145;45.188;5.712;2023-01-25T08:06:45;100326.78;;;11.48;45.82
54306;BME280;66145;45.188;5.712;2023-01-25T08:09:13;100394.81;;;11.87;45.99
54306;BME280;66145;45.188;5.712;2023-01-25T08:11:40;100372.34;;;11.75;46.19
54306;BME280;66145;45.188;5.712;2023-01-25T08:14:06;100346.44;;;11.55;46.29
54306;BME280;66145;45.188;5.712;2023-01-25T08:16:32;100389.72;;;11.91;46.20
54306;BME280;66145;45.188;5.712;2023-01-25T08:18:59;100401.75;;;11.95;46.29
54306;BME280;66145;45.188;5.712;2023-01-25T08:21:26;100357.03;;;11.69;46.20
54306;BME280;66145;45.188;5.712;2023-01-25T08:23:59;100393.50;;;11.90;46.20
54306;BME280;66145;45.188;5.712;2023-01-25T08:26:25;100400.34;;;11.93;46.09
54306;BME280;66145;45.188;5.712;2023-01-25T08:28:50;100389.66;;;11.86;46.37
54306;BME280;66145;45.188;5.712;2023-01-25T08:31:23;100383.63;;;11.84;45.93
54306;BME280;66145;45.188;5.712;2023-01-25T08:33:49;100368.56;;;11.76;46.40
54306;BME280;66145;45.188;5.712;2023-01-25T08:36:16;100320.34;;;11.37;46.35
54306;BME280;66145;45.188;5.712;2023-01-25T08:38:43;100391.28;;;11.87;46.24
54306;BME280;66145;45.188;5.712;2023-01-25T08:41:13;100388.47;;;11.82;46.22
54306;BME280;66145;45.188;5.712;2023-01-25T08:43:40;100395.72;;;11.93;46.30
54306;BME280;66145;45.188;5.712;2023-01-25T08:46:05;100358.41;;;11.71;46.16
54306;BME280;66145;45.188;5.712;2023-01-25T08:48:31;100386.78;;;11.93;46.30
54306;BME280;66145;45.188;5.712;2023-01-25T08:50:57;100305.75;;;11.38;46.37
54306;BME280;66145;45.188;5.712;2023-01-25T08:53:22;100383.63;;;11.84;46.34
54306;BME280;66145;45.188;5.712;2023-01-25T08:55:47;100266.22;;;11.14;46.19
54306;BME280;66145;45.188;5.712;2023-01-25T08:58:14;100390.31;;;11.93;46.36
54306;BME280;66145;45.188;5.712;2023-01-25T09:00:41;100378.41;;;11.94;46.27
54306;BME280;66145;45.188;5.712;2023-01-25T09:03:07;100371.22;;;11.88;46.31
54306;BME280;66145;45.188;5.712;2023-01-25T09:05:35;100372.41;;;11.92;45.96
54306;BME280;66145;45.188;5.712;2023-01-25T09:08:02;100286.66;;;11.33;46.24
54306;BME280;66145;45.188;5.712;2023-01-25T09:10:28;100368.19;;;11.84;46.32
54306;BME280;66145;45.188;5.712;2023-01-25T09:12:53;100339.13;;;11.68;46.05
54306;BME280;66145;45.188;5.712;2023-01-25T09:15:19;100356.25;;;11.85;46.06
54306;BME280;66145;45.188;5.712;2023-01-25T09:17:44;100364.50;;;11.91;46.23
54306;BME280;66145;45.188;5.712;2023-01-25T09:20:10;100371.59;;;11.92;46.23
54306;BME280;66145;45.188;5.712;2023-01-25T09:22:35;100329.34;;;11.67;46.48
54306;BME280;66145;45.188;5.712;2023-01-25T09:25:01;100369.94;;;11.91;45.89
54306;BME280;66145;45.188;5.712;2023-01-25T09:27:26;100353.69;;;11.79;46.14
54306;BME280;66145;45.188;5.712;2023-01-25T09:29:52;100370.88;;;11.84;46.56
54306;BME280;66145;45.188;5.712;2023-01-25T09:32:17;100284.75;;;11.34;46.59
54306;BME280;66145;45.188;5.712;2023-01-25T09:34:42;100373.72;;;11.90;46.49
54306;BME280;66145;45.188;5.712;2023-01-25T09:37:08;100331.72;;;11.63;46.35
54306;BME280;66145;45.188;5.712;2023-01-25T09:39:33;100384.78;;;11.88;46.18
54306;BME280;66145;45.188;5.712;2023-01-25T09:45:20;100373.72;;;11.90;46.13
54306;BME280;66145;45.188;5.712;2023-01-25T09:50:37;100380.19;;;11.89;46.11
54306;BME280;66145;45.188;5.712;2023-01-25T09:56:03;100388.34;;;11.89;46.30
54306;BME280;66145;45.188;5.712;2023-01-25T09:58:37;100326.16;;;11.58;46.53
54306;BME280;66145;45.188;5.712;2023-01-25T10:01:18;100377.97;;;11.85;46.79
54306;BME280;66145;45.188;5.712;2023-01-25T10:06:20;100372.56;;;11.74;46.42
54306;BME280;66145;45.188;5.712;2023-01-25T10:09:04;100392.91;;;11.88;46.62
54306;BME280;66145;45.188;5.712;2023-01-25T10:11:33;100375.72;;;11.82;46.44
54306;BME280;66145;45.188;5.712;2023-01-25T10:13:59;100341.97;;;11.61;46.24
54306;BME280;66145;45.188;5.712;2023-01-25T10:16:48;100369.03;;;11.73;46.34
54306;BME280;66145;45.188;5.712;2023-01-25T10:19:34;100375.72;;;11.82;46.34
54306;BME280;66145;45.188;5.712;2023-01-25T10:30:30;100299.81;;;11.41;46.42
54306;BME280;66145;45.188;5.712;2023-01-25T10:32:59;100360.44;;;11.76;46.13
54306;BME280;66145;45.188;5.712;2023-01-25T10:35:28;100334.66;;;11.62;46.38
54306;BME280;66145;45.188;5.712;2023-01-25T10:37:58;100331.97;;;11.62;46.64
54306;BME280;66145;45.188;5.712;2023-01-25T10:40:34;100272.09;;;11.22;46.13
54306;BME280;66145;45.188;5.712;2023-01-25T10:43:07;100314.53;;;11.57;46.35
54306;BME280;66145;45.188;5.712;2023-01-25T10:45:37;100338.16;;;11.74;46.15
54306;BME280;66145;45.188;5.712;2023-01-25T10:48:07;100307.81;;;11.48;46.55
54306;BME280;66145;45.188;5.712;2023-01-25T10:53:22;100309.44;;;11.61;46.08
54306;BME280;66145;45.188;5.712;2023-01-25T10:56:21;100328.50;;;11.78;46.33
54306;BME280;66145;45.188;5.712;2023-01-25T10:58:50;100281.31;;;11.50;46.12
54306;BME280;66145;45.188;5.712;2023-01-25T11:01:30;100315.31;;;11.70;46.39
54306;BME280;66145;45.188;5.712;2023-01-25T11:03:56;100282.94;;;11.51;46.53
54306;BME280;66145;45.188;5.712;2023-01-25T11:06:45;100310.00;;;11.75;46.33
54306;BME280;66145;45.188;5.712;2023-01-25T11:12:14;100273.63;;;11.59;46.37
54306;BME280;66145;45.188;5.712;2023-01-25T11:14:40;100299.22;;;11.80;46.22
54306;BME280;66145;45.188;5.712;2023-01-25T11:17:22;100279.75;;;11.66;46.07
54306;BME280;66145;45.188;5.712;2023-01-25T11:20:04;100289.44;;;11.79;46.28
54306;BME280;66145;45.188;5.712;2023-01-25T11:22:31;100292.16;;;11.79;46.49
54306;BME280;66145;45.188;5.712;2023-01-25T11:24:56;100253.00;;;11.58;46.23
54306;BME280;66145;45.188;5.712;2023-01-25T11:27:24;100252.78;;;11.60;46.58
54306;BME280;66145;45.188;5.712;2023-01-25T11:30:13;100274.59;;;11.82;46.28
54306;BME280;66145;45.188;5.712;2023-01-25T11:32:40;100154.16;;;11.03;46.44
54306;BME280;66145;45.188;5.712;2023-01-25T11:35:17;100259.63;;;11.79;46.65
54306;BME280;66145;45.188;5.712;2023-01-25T11:40:37;100241.53;;;11.68;46.80
54306;BME280;66145;45.188;5.712;2023-01-25T11:56:07;100236.41;;;11.83;47.00
54306;BME280;66145;45.188;5.712;2023-01-25T12:11:45;100221.19;;;11.82;46.36
54306;BME280;66145;45.188;5.712;2023-01-25T12:15:00;100226.63;;;11.82;46.38
54306;BME280;66145;45.188;5.712;2023-01-25T12:20:13;100088.22;;;11.09;46.75
54306;BME280;66145;45.188;5.712;2023-01-25T12:28:10;100197.84;;;11.81;46.60
54306;BME280;66145;45.188;5.712;2023-01-25T12:30:52;100203.28;;;11.81;46.73
54306;BME280;66145;45.188;5.712;2023-01-25T12:38:27;100147.75;;;11.67;46.27
54306;BME280;66145;45.188;5.712;2023-01-25T12:43:35;100149.00;;;11.76;46.34
54306;BME280;66145;45.188;5.712;2023-01-25T12:46:10;100131.56;;;11.72;46.44
54306;BME280;66145;45.188;5.712;2023-01-25T12:48:42;100138.16;;;11.76;46.93
54306;BME280;66145;45.188;5.712;2023-01-25T12:51:10;100097.91;;;11.51;46.64
54306;BME280;66145;45.188;5.712;2023-01-25T12:53:39;100139.06;;;11.82;46.50
54306;BME280;66145;45.188;5.712;2023-01-25T12:56:08;100084.19;;;11.57;46.89
54306;BME280;66145;45.188;5.712;2023-01-25T12:59:00;100121.53;;;11.72;46.53
54306;BME280;66145;45.188;5.712;2023-01-25T13:01:31;100120.06;;;11.82;46.89
54306;BME280;66145;45.188;5.712;2023-01-25T13:04:22;100124.66;;;11.81;46.51
54306;BME280;66145;45.188;5.712;2023-01-25T13:07:26;100025.28;;;11.19;46.94
54306;BME280;66145;45.188;5.712;2023-01-25T13:09:58;100118.44;;;11.81;46.70
54306;BME280;66145;45.188;5.712;2023-01-25T13:12:25;100023.75;;;11.23;46.40
54306;BME280;66145;45.188;5.712;2023-01-25T13:14:51;100108.34;;;11.76;46.74
54306;BME280;66145;45.188;5.712;2023-01-25T13:17:31;100114.09;;;11.80;46.59
54306;BME280;66145;45.188;5.712;2023-01-25T13:19:58;100108.91;;;11.78;46.72
54306;BME280;66145;45.188;5.712;2023-01-25T13:25:18;100072.28;;;11.59;46.63
54306;BME280;66145;45.188;5.712;2023-01-25T13:27:44;100096.91;;;11.74;46.27
54306;BME280;66145;45.188;5.712;2023-01-25T13:30:29;100086.81;;;11.69;46.45
54306;BME280;66145;45.188;5.712;2023-01-25T13:32:58;100094.25;;;11.79;46.76
54306;BME280;66145;45.188;5.712;2023-01-25T13:35:50;100096.16;;;11.79;47.04
54306;BME280;66145;45.188;5.712;2023-01-25T13:38:38;100095.09;;;11.80;46.76
54306;BME280;66145;45.188;5.712;2023-01-25T13:41:11;100091.00;;;11.77;46.40
54306;BME280;66145;45.188;5.712;2023-01-25T13:43:40;100082.53;;;11.74;46.76
54306;BME280;66145;45.188;5.712;2023-01-25T13:46:08;100064.47;;;11.62;46.69
54306;BME280;66145;45.188;5.712;2023-01-25T13:48:46;99999.59;;;11.21;46.60
54306;BME280;66145;45.188;5.712;2023-01-25T13:51:14;100057.31;;;11.56;46.56
54306;BME280;66145;45.188;5.712;2023-01-25T13:53:41;100090.44;;;11.75;46.57
54306;BME280;66145;45.188;5.712;2023-01-25T13:56:24;100075.63;;;11.66;46.80
54306;BME280;66145;45.188;5.712;2023-01-25T13:58:50;100082.22;;;11.70;46.72
54306;BME280;66145;45.188;5.712;2023-01-25T14:01:17;100077.28;;;11.67;46.64
54306;BME280;66145;45.188;5.712;2023-01-25T14:03:49;100092.66;;;11.78;46.93
54306;BME280;66145;45.188;5.712;2023-01-25T14:06:28;100087.22;;;11.78;46.69
54306;BME280;66145;45.188;5.712;2023-01-25T14:08:57;100047.31;;;11.56;46.56
54306;BME280;66145;45.188;5.712;2023-01-25T14:11:27;100062.59;;;11.63;46.84
54306;BME280;66145;45.188;5.712;2023-01-25T14:14:29;100089.94;;;11.78;46.54
54306;BME280;66145;45.188;5.712;2023-01-25T14:19:38;100050.59;;;11.59;46.88
54306;BME280;66145;45.188;5.712;2023-01-25T14:27:33;100003.47;;;11.25;46.76
54306;BME280;66145;45.188;5.712;2023-01-25T14:29:59;100076.28;;;11.73;46.89